sensor_id;sensor_type;location;lat;lon;timestamp;pressure;altitude;pressure_sealevel;temperature;humidity
11448;BME280;43755;49.736;8.734;2022-11-13T00:01:30;98949.84;;;4.56;100.00
11448;BME280;43755;49.736;8.734;2022-11-13T00:03:32;98942.06;;;4.46;100.00
11448;BME280;43755;49.736;8.734;2022-11-13T00:05:33;98943.81;;;4.47;100.00
11448;BME280;43755;49.736;8.734;2022-11-13T00:07:34;98946.38;;;4.49;100.00
11448;BME280;43755;49.736;8.734;2022-11-13T00:09:36;98936.81;;;4.45;100.00
11448;BME280;43755;49.736;8.734;2022-11-13T00:11:37;98935.91;;;4.52;100.00
11448;BME280;43755;49.736;8.734;2022-11-13T00:13:40;98941.16;;;4.52;100.00
11448;BME280;43755;49.736;8.734;2022-11-13T00:15:42;98935.03;;;4.48;100.00
11448;BME280;43755;49.736;8.734;2022-11-13T00:17:43;98933.28;;;4.49;100.00
11448;BME280;43755;49.736;8.734;2022-11-13T00:19:44;98926.31;;;4.45;100.00
11448;BME280;43755;49.736;8.734;2022-11-13T00:21:46;98926.31;;;4.45;100.00
11448;BME280;43755;49.736;8.734;2022-11-13T00:23:48;98928.97;;;4.37;100.00
11448;BME280;43755;49.736;8.734;2022-11-13T00:25:49;98925.47;;;4.38;100.00
11448;BME280;43755;49.736;8.734;2022-11-13T00:27:50;98912.38;;;4.38;100.00
11448;BME280;43755;49.736;8.734;2022-11-13T00:29:53;98914.13;;;4.39;100.00
11448;BME280;43755;49.736;8.734;2022-11-13T00:31:54;98918.50;;;4.31;100.00
11448;BME280;43755;49.736;8.734;2022-11-13T00:33:56;98912.41;;;4.25;100.00
11448;BME280;43755;49.736;8.734;2022-11-13T00:36:01;98917.69;;;4.23;100.00
11448;BME280;43755;49.736;8.734;2022-11-13T00:38:03;98911.56;;;4.23;100.00
11448;BME280;43755;49.736;8.734;2022-11-13T00:40:05;98920.28;;;4.19;100.00
11448;BME280;43755;49.736;8.734;2022-11-13T00:42:06;98922.03;;;4.20;100.00
11448;BME280;43755;49.736;8.734;2022-11-13T00:44:08;98917.66;;;4.20;100.00
11448;BME280;43755;49.736;8.734;2022-11-13T00:46:11;98918.53;;;4.19;100.00
11448;BME280;43755;49.736;8.734;2022-11-13T00:48:13;98914.22;;;4.18;100.00
11448;BME280;43755;49.736;8.734;2022-11-13T00:50:14;98912.44;;;4.12;100.00
11448;BME280;43755;49.736;8.734;2022-11-13T00:52:15;98903.72;;;4.07;100.00
11448;BME280;43755;49.736;8.734;2022-11-13T00:54:17;98914.25;;;3.86;100.00
11448;BME280;43755;49.736;8.734;2022-11-13T00:56:19;98898.56;;;3.80;100.00
11448;BME280;43755;49.736;8.734;2022-11-13T00:58:20;98890.72;;;3.82;100.00
11448;BME280;43755;49.736;8.734;2022-11-13T01:00:21;98899.47;;;3.68;100.00
11448;BME280;43755;49.736;8.734;2022-11-13T01:02:24;98898.56;;;3.66;100.00
11448;BME280;43755;49.736;8.734;2022-11-13T01:04:27;98902.06;;;3.55;100.00
11448;BME280;43755;49.736;8.734;2022-11-13T01:06:29;98900.31;;;3.48;100.00
11448;BME280;43755;49.736;8.734;2022-11-13T01:08:30;98898.59;;;3.38;100.00
11448;BME280;43755;49.736;8.734;2022-11-13T01:10:32;98908.19;;;3.29;100.00
11448;BME280;43755;49.736;8.734;2022-11-13T01:12:34;98904.72;;;3.23;100.00
11448;BME280;43755;49.736;8.734;2022-11-13T01:14:36;98913.41;;;3.17;100.00
11448;BME280;43755;49.736;8.734;2022-11-13T01:16:37;98907.31;;;3.09;100.00
11448;BME280;43755;49.736;8.734;2022-11-13T01:18:40;98910.75;;;3.07;100.00
11448;BME280;43755;49.736;8.734;2022-11-13T01:20:42;98905.53;;;3.01;100.00
11448;BME280;43755;49.736;8.734;2022-11-13T01:22:43;98908.13;;;2.90;100.00
11448;BME280;43755;49.736;8.734;2022-11-13T01:24:45;98909.00;;;2.92;100.00
11448;BME280;43755;49.736;8.734;2022-11-13T01:26:46;98907.25;;;2.85;100.00
11448;BME280;43755;49.736;8.734;2022-11-13T01:28:48;98909.00;;;2.91;100.00
11448;BME280;43755;49.736;8.734;2022-11-13T01:30:49;98901.19;;;2.87;100.00
11448;BME280;43755;49.736;8.734;2022-11-13T01:32:50;98893.34;;;2.87;100.00
11448;BME280;43755;49.736;8.734;2022-11-13T01:34:53;98893.31;;;2.80;100.00
11448;BME280;43755;49.736;8.734;2022-11-13T01:36:54;98893.28;;;2.77;100.00
11448;BME280;43755;49.736;8.734;2022-11-13T01:38:56;98898.53;;;2.80;100.00
11448;BME280;43755;49.736;8.734;2022-11-13T01:40:58;98888.09;;;2.81;100.00
11448;BME280;43755;49.736;8.734;2022-11-13T01:43:13;98891.59;;;2.82;100.00
11448;BME280;43755;49.736;8.734;2022-11-13T01:45:48;98892.41;;;2.78;100.00
11448;BME280;43755;49.736;8.734;2022-11-13T01:48:02;98888.94;;;2.74;100.00
11448;BME280;43755;49.736;8.734;2022-11-13T01:50:08;98888.94;;;2.77;100.00
11448;BME280;43755;49.736;8.734;2022-11-13T01:52:12;98882.00;;;2.81;100.00
11448;BME280;43755;49.736;8.734;2022-11-13T01:54:17;98883.72;;;2.83;100.00
11448;BME280;43755;49.736;8.734;2022-11-13T01:56:20;98889.81;;;2.70;100.00
11448;BME280;43755;49.736;8.734;2022-11-13T01:58:22;98882.84;;;2.65;100.00
11448;BME280;43755;49.736;8.734;2022-11-13T02:00:23;98879.34;;;2.67;100.00
11448;BME280;43755;49.736;8.734;2022-11-13T02:02:25;98874.97;;;2.66;100.00
11448;BME280;43755;49.736;8.734;2022-11-13T02:04:28;98882.78;;;2.53;100.00
11448;BME280;43755;49.736;8.734;2022-11-13T02:06:35;98884.53;;;2.52;100.00
11448;BME280;43755;49.736;8.734;2022-11-13T02:08:38;98884.50;;;2.49;100.00
11448;BME280;43755;49.736;8.734;2022-11-13T02:10:39;98889.72;;;2.43;100.00
11448;BME280;43755;49.736;8.734;2022-11-13T02:12:42;98886.25;;;2.50;100.00
11448;BME280;43755;49.736;8.734;2022-11-13T02:14:49;98875.84;;;2.58;100.00
11448;BME280;43755;49.736;8.734;2022-11-13T02:16:55;98874.09;;;2.61;100.00
11448;BME280;43755;49.736;8.734;2022-11-13T02:18:57;98874.09;;;2.66;100.00
11448;BME280;43755;49.736;8.734;2022-11-13T02:21:05;98873.25;;;2.74;100.00
11448;BME280;43755;49.736;8.734;2022-11-13T02:23:16;98868.03;;;2.70;100.00
11448;BME280;43755;49.736;8.734;2022-11-13T02:25:23;98862.78;;;2.71;100.00
11448;BME280;43755;49.736;8.734;2022-11-13T02:27:31;98854.97;;;2.74;100.00
11448;BME280;43755;49.736;8.734;2022-11-13T02:29:34;98862.78;;;2.65;100.00
11448;BME280;43755;49.736;8.734;2022-11-13T02:31:35;98860.19;;;2.59;100.00
11448;BME280;43755;49.736;8.734;2022-11-13T02:33:37;98852.31;;;2.58;100.00
11448;BME280;43755;49.736;8.734;2022-11-13T02:35:38;98852.31;;;2.61;100.00
11448;BME280;43755;49.736;8.734;2022-11-13T02:37:40;98844.50;;;2.58;100.00
11448;BME280;43755;49.736;8.734;2022-11-13T02:39:41;98846.22;;;2.54;100.00
11448;BME280;43755;49.736;8.734;2022-11-13T02:41:44;98842.69;;;2.43;100.00
11448;BME280;43755;49.736;8.734;2022-11-13T02:43:45;98854.84;;;2.32;100.00
11448;BME280;43755;49.736;8.734;2022-11-13T02:45:46;98850.50;;;2.29;100.00
11448;BME280;43755;49.736;8.734;2022-11-13T02:47:48;98857.41;;;2.20;100.00
11448;BME280;43755;49.736;8.734;2022-11-13T02:49:49;98855.69;;;2.26;100.00
11448;BME280;43755;49.736;8.734;2022-11-13T02:51:51;98848.75;;;2.31;100.00
11448;BME280;43755;49.736;8.734;2022-11-13T02:53:52;98843.56;;;2.33;100.00
11448;BME280;43755;49.736;8.734;2022-11-13T02:55:54;98838.31;;;2.36;100.00
11448;BME280;43755;49.736;8.734;2022-11-13T02:57:57;98847.03;;;2.29;100.00
11448;BME280;43755;49.736;8.734;2022-11-13T02:59:58;98835.72;;;2.36;100.00
11448;BME280;43755;49.736;8.734;2022-11-13T03:01:59;98834.84;;;2.34;100.00
11448;BME280;43755;49.736;8.734;2022-11-13T03:04:01;98829.66;;;2.41;100.00
11448;BME280;43755;49.736;8.734;2022-11-13T03:06:02;98825.28;;;2.48;100.00
11448;BME280;43755;49.736;8.734;2022-11-13T03:08:05;98830.56;;;2.53;100.00
11448;BME280;43755;49.736;8.734;2022-11-13T03:10:07;98826.22;;;2.58;100.00
11448;BME280;43755;49.736;8.734;2022-11-13T03:12:09;98824.44;;;2.55;100.00
11448;BME280;43755;49.736;8.734;2022-11-13T03:14:12;98827.06;;;2.57;100.00
11448;BME280;43755;49.736;8.734;2022-11-13T03:16:15;98818.34;;;2.52;100.00
11448;BME280;43755;49.736;8.734;2022-11-13T03:18:17;98824.44;;;2.51;100.00
11448;BME280;43755;49.736;8.734;2022-11-13T03:20:18;98821.00;;;2.59;100.00
11448;BME280;43755;49.736;8.734;2022-11-13T03:22:19;98818.34;;;2.61;100.00
11448;BME280;43755;49.736;8.734;2022-11-13T03:24:21;98829.69;;;2.58;100.00
11448;BME280;43755;49.736;8.734;2022-11-13T03:26:22;98817.53;;;2.65;100.00
11448;BME280;43755;49.736;8.734;2022-11-13T03:28:24;98814.91;;;2.74;100.00
11448;BME280;43755;49.736;8.734;2022-11-13T03:30:27;98818.41;;;2.80;100.00
11448;BME280;43755;49.736;8.734;2022-11-13T03:32:28;98809.69;;;2.91;100.00
11448;BME280;43755;49.736;8.734;2022-11-13T03:34:30;98808.81;;;2.93;100.00
11448;BME280;43755;49.736;8.734;2022-11-13T03:36:31;98811.44;;;2.99;100.00
11448;BME280;43755;49.736;8.734;2022-11-13T03:38:33;98805.34;;;2.99;100.00
11448;BME280;43755;49.736;8.734;2022-11-13T03:40:34;98807.97;;;3.00;100.00
11448;BME280;43755;49.736;8.734;2022-11-13T03:42:36;98811.44;;;3.02;100.00
11448;BME280;43755;49.736;8.734;2022-11-13T03:44:37;98812.28;;;2.95;100.00
11448;BME280;43755;49.736;8.734;2022-11-13T03:46:40;98814.03;;;2.96;100.00
11448;BME280;43755;49.736;8.734;2022-11-13T03:48:41;98811.41;;;3.01;100.00
11448;BME280;43755;49.736;8.734;2022-11-13T03:50:44;98819.25;;;2.95;100.00
11448;BME280;43755;49.736;8.734;2022-11-13T03:52:46;98815.81;;;3.05;100.00
11448;BME280;43755;49.736;8.734;2022-11-13T03:54:48;98805.34;;;3.08;100.00
11448;BME280;43755;49.736;8.734;2022-11-13T03:56:49;98804.47;;;3.18;100.00
11448;BME280;43755;49.736;8.734;2022-11-13T03:58:50;98806.19;;;3.19;100.00
11448;BME280;43755;49.736;8.734;2022-11-13T04:00:53;98814.91;;;3.21;100.00
11448;BME280;43755;49.736;8.734;2022-11-13T04:02:55;98807.94;;;3.20;100.00
11448;BME280;43755;49.736;8.734;2022-11-13T04:04:57;98811.41;;;3.25;100.00
11448;BME280;43755;49.736;8.734;2022-11-13T04:06:58;98814.94;;;3.22;100.00
11448;BME280;43755;49.736;8.734;2022-11-13T04:09:00;98804.47;;;3.07;100.00
11448;BME280;43755;49.736;8.734;2022-11-13T04:11:05;98807.97;;;3.05;100.00
11448;BME280;43755;49.736;8.734;2022-11-13T04:13:07;98814.94;;;3.00;100.00
11448;BME280;43755;49.736;8.734;2022-11-13T04:15:09;98801.88;;;3.06;100.00
11448;BME280;43755;49.736;8.734;2022-11-13T04:17:10;98801.84;;;2.91;100.00
11448;BME280;43755;49.736;8.734;2022-11-13T04:19:13;98807.97;;;2.94;100.00
11448;BME280;43755;49.736;8.734;2022-11-13T04:21:14;98805.34;;;2.97;100.00
11448;BME280;43755;49.736;8.734;2022-11-13T04:23:16;98802.75;;;3.00;100.00
11448;BME280;43755;49.736;8.734;2022-11-13T04:25:17;98802.72;;;2.96;100.00
11448;BME280;43755;49.736;8.734;2022-11-13T04:27:19;98789.66;;;2.88;100.00
11448;BME280;43755;49.736;8.734;2022-11-13T04:29:20;98790.53;;;2.87;100.00
11448;BME280;43755;49.736;8.734;2022-11-13T04:31:21;98793.13;;;2.90;100.00
11448;BME280;43755;49.736;8.734;2022-11-13T04:33:23;98790.53;;;2.92;100.00
11448;BME280;43755;49.736;8.734;2022-11-13T04:35:25;98780.94;;;2.83;100.00
11448;BME280;43755;49.736;8.734;2022-11-13T04:37:27;98782.66;;;2.84;100.00
11448;BME280;43755;49.736;8.734;2022-11-13T04:39:28;98777.44;;;2.78;100.00
11448;BME280;43755;49.736;8.734;2022-11-13T04:41:30;98775.72;;;2.78;100.00
11448;BME280;43755;49.736;8.734;2022-11-13T04:43:49;98778.34;;;2.81;100.00
11448;BME280;43755;49.736;8.734;2022-11-13T04:45:51;98774.00;;;2.88;100.00
11448;BME280;43755;49.736;8.734;2022-11-13T04:47:52;98777.47;;;2.79;100.00
11448;BME280;43755;49.736;8.734;2022-11-13T04:49:54;98777.47;;;2.82;100.00
11448;BME280;43755;49.736;8.734;2022-11-13T04:51:57;98770.50;;;2.80;100.00
11448;BME280;43755;49.736;8.734;2022-11-13T04:53:58;98771.38;;;2.82;100.00
11448;BME280;43755;49.736;8.734;2022-11-13T04:55:59;98763.53;;;2.88;100.00
11448;BME280;43755;49.736;8.734;2022-11-13T04:58:01;98763.53;;;2.70;100.00
11448;BME280;43755;49.736;8.734;2022-11-13T05:00:04;98764.38;;;2.72;100.00
11448;BME280;43755;49.736;8.734;2022-11-13T05:02:06;98762.63;;;2.60;100.00
11448;BME280;43755;49.736;8.734;2022-11-13T05:04:10;98762.66;;;2.53;100.00
11448;BME280;43755;49.736;8.734;2022-11-13T05:06:12;98766.97;;;2.51;100.00
11448;BME280;43755;49.736;8.734;2022-11-13T05:08:15;98760.88;;;2.48;100.00
11448;BME280;43755;49.736;8.734;2022-11-13T05:10:16;98754.78;;;2.43;100.00
11448;BME280;43755;49.736;8.734;2022-11-13T05:12:18;98751.31;;;2.41;100.00
11448;BME280;43755;49.736;8.734;2022-11-13T05:14:19;98747.81;;;2.42;100.00
11448;BME280;43755;49.736;8.734;2022-11-13T05:16:20;98746.06;;;2.43;100.00
11448;BME280;43755;49.736;8.734;2022-11-13T05:18:23;98740.84;;;2.47;100.00
11448;BME280;43755;49.736;8.734;2022-11-13T05:20:25;98740.00;;;2.45;100.00
11448;BME280;43755;49.736;8.734;2022-11-13T05:22:26;98735.66;;;2.41;100.00
11448;BME280;43755;49.736;8.734;2022-11-13T05:24:29;98733.00;;;2.38;100.00
11448;BME280;43755;49.736;8.734;2022-11-13T05:26:30;98736.50;;;2.33;100.00
11448;BME280;43755;49.736;8.734;2022-11-13T05:28:32;98735.59;;;2.25;100.00
11448;BME280;43755;49.736;8.734;2022-11-13T05:30:34;98718.22;;;2.24;100.00
11448;BME280;43755;49.736;8.734;2022-11-13T05:32:35;98731.28;;;2.24;100.00
11448;BME280;43755;49.736;8.734;2022-11-13T05:34:37;98727.78;;;2.22;100.00
11448;BME280;43755;49.736;8.734;2022-11-13T05:36:38;98721.69;;;2.23;100.00
11448;BME280;43755;49.736;8.734;2022-11-13T05:38:40;98719.94;;;2.28;100.00
11448;BME280;43755;49.736;8.734;2022-11-13T05:40:43;98719.94;;;2.31;100.00
11448;BME280;43755;49.736;8.734;2022-11-13T05:42:44;98727.81;;;2.35;100.00
11448;BME280;43755;49.736;8.734;2022-11-13T05:44:45;98726.94;;;2.35;100.00
11448;BME280;43755;49.736;8.734;2022-11-13T05:46:47;98727.78;;;2.38;100.00
11448;BME280;43755;49.736;8.734;2022-11-13T05:48:52;98728.66;;;2.43;100.00
11448;BME280;43755;49.736;8.734;2022-11-13T05:50:54;98720.84;;;2.46;100.00
11448;BME280;43755;49.736;8.734;2022-11-13T05:53:00;98719.97;;;2.49;100.00
11448;BME280;43755;49.736;8.734;2022-11-13T05:55:01;98713.88;;;2.50;100.00
11448;BME280;43755;49.736;8.734;2022-11-13T05:57:04;98711.28;;;2.47;100.00
11448;BME280;43755;49.736;8.734;2022-11-13T05:59:06;98707.75;;;2.42;100.00
11448;BME280;43755;49.736;8.734;2022-11-13T06:01:09;98713.88;;;2.39;100.00
11448;BME280;43755;49.736;8.734;2022-11-13T06:03:11;98710.38;;;2.34;100.00
11448;BME280;43755;49.736;8.734;2022-11-13T06:05:12;98701.66;;;2.32;100.00
11448;BME280;43755;49.736;8.734;2022-11-13T06:07:14;98698.19;;;2.23;100.00
11448;BME280;43755;49.736;8.734;2022-11-13T06:09:15;98688.59;;;2.10;100.00
11448;BME280;43755;49.736;8.734;2022-11-13T06:11:20;98702.50;;;1.98;100.00
11448;BME280;43755;49.736;8.734;2022-11-13T06:13:23;98690.28;;;1.86;100.00
11448;BME280;43755;49.736;8.734;2022-11-13T06:15:24;98695.47;;;1.77;100.00
11448;BME280;43755;49.736;8.734;2022-11-13T06:17:25;98690.22;;;1.67;100.00
11448;BME280;43755;49.736;8.734;2022-11-13T06:19:27;98697.22;;;1.71;100.00
11448;BME280;43755;49.736;8.734;2022-11-13T06:21:32;98691.97;;;1.69;100.00
11448;BME280;43755;49.736;8.734;2022-11-13T06:23:34;98685.88;;;1.72;100.00
11448;BME280;43755;49.736;8.734;2022-11-13T06:25:36;98688.47;;;1.72;100.00
11448;BME280;43755;49.736;8.734;2022-11-13T06:27:37;98686.78;;;1.75;100.00
11448;BME280;43755;49.736;8.734;2022-11-13T06:29:40;98678.06;;;1.72;100.00
11448;BME280;43755;49.736;8.734;2022-11-13T06:31:42;98683.28;;;1.69;100.00
11448;BME280;43755;49.736;8.734;2022-11-13T06:33:43;98682.41;;;1.70;100.00
11448;BME280;43755;49.736;8.734;2022-11-13T06:35:45;98684.13;;;1.66;100.00
11448;BME280;43755;49.736;8.734;2022-11-13T06:37:46;98685.88;;;1.64;100.00
11448;BME280;43755;49.736;8.734;2022-11-13T06:39:48;98684.97;;;1.65;100.00
11448;BME280;43755;49.736;8.734;2022-11-13T06:41:49;98682.41;;;1.71;100.00
11448;BME280;43755;49.736;8.734;2022-11-13T06:43:50;98686.75;;;1.69;100.00
11448;BME280;43755;49.736;8.734;2022-11-13T06:45:53;98685.88;;;1.73;100.00
11448;BME280;43755;49.736;8.734;2022-11-13T06:47:55;98685.06;;;1.80;100.00
11448;BME280;43755;49.736;8.734;2022-11-13T06:49:56;98673.75;;;1.81;100.00
11448;BME280;43755;49.736;8.734;2022-11-13T06:51:58;98671.13;;;1.81;100.00
11448;BME280;43755;49.736;8.734;2022-11-13T06:53:59;98668.50;;;1.83;100.00
11448;BME280;43755;49.736;8.734;2022-11-13T06:56:00;98664.19;;;1.86;100.00
11448;BME280;43755;49.736;8.734;2022-11-13T06:58:04;98660.69;;;1.89;100.00
11448;BME280;43755;49.736;8.734;2022-11-13T07:00:07;98664.19;;;1.85;100.00
11448;BME280;43755;49.736;8.734;2022-11-13T07:02:10;98662.47;;;1.87;100.00
11448;BME280;43755;49.736;8.734;2022-11-13T07:04:12;98665.06;;;1.85;100.00
11448;BME280;43755;49.736;8.734;2022-11-13T07:06:15;98668.56;;;1.87;100.00
11448;BME280;43755;49.736;8.734;2022-11-13T07:08:17;98672.00;;;1.76;100.00
11448;BME280;43755;49.736;8.734;2022-11-13T07:10:19;98674.56;;;1.71;100.00
11448;BME280;43755;49.736;8.734;2022-11-13T07:12:20;98666.78;;;1.76;100.00
11448;BME280;43755;49.736;8.734;2022-11-13T07:14:22;98657.19;;;1.72;100.00
11448;BME280;43755;49.736;8.734;2022-11-13T07:16:23;98663.28;;;1.71;100.00
11448;BME280;43755;49.736;8.734;2022-11-13T07:18:26;98663.25;;;1.61;100.00
11448;BME280;43755;49.736;8.734;2022-11-13T07:20:28;98660.66;;;1.63;100.00
11448;BME280;43755;49.736;8.734;2022-11-13T07:22:29;98663.28;;;1.68;100.00
11448;BME280;43755;49.736;8.734;2022-11-13T07:24:31;98648.50;;;1.68;100.00
11448;BME280;43755;49.736;8.734;2022-11-13T07:26:32;98640.69;;;1.74;100.00
11448;BME280;43755;49.736;8.734;2022-11-13T07:28:33;98646.81;;;1.82;100.00
11448;BME280;43755;49.736;8.734;2022-11-13T07:30:35;98646.78;;;1.90;100.00
11448;BME280;43755;49.736;8.734;2022-11-13T07:32:36;98645.94;;;1.98;100.00
11448;BME280;43755;49.736;8.734;2022-11-13T07:34:39;98645.09;;;2.05;100.00
11448;BME280;43755;49.736;8.734;2022-11-13T07:36:40;98650.28;;;1.96;100.00
11448;BME280;43755;49.736;8.734;2022-11-13T07:38:42;98640.72;;;2.12;100.00
11448;BME280;43755;49.736;8.734;2022-11-13T07:40:43;98642.50;;;2.21;100.00
11448;BME280;43755;49.736;8.734;2022-11-13T07:42:44;98648.59;;;2.27;100.00
11448;BME280;43755;49.736;8.734;2022-11-13T07:44:46;98647.69;;;2.36;100.00
11448;BME280;43755;49.736;8.734;2022-11-13T07:46:47;98641.63;;;2.43;100.00
11448;BME280;43755;49.736;8.734;2022-11-13T07:48:48;98635.53;;;2.45;100.00
11448;BME280;43755;49.736;8.734;2022-11-13T07:50:52;98643.34;;;2.50;100.00
11448;BME280;43755;49.736;8.734;2022-11-13T07:52:54;98639.88;;;2.56;100.00
11448;BME280;43755;49.736;8.734;2022-11-13T07:54:56;98644.19;;;2.72;100.00
11448;BME280;43755;49.736;8.734;2022-11-13T07:56:57;98645.94;;;2.74;100.00
11448;BME280;43755;49.736;8.734;2022-11-13T07:58:59;98643.31;;;2.83;100.00
11448;BME280;43755;49.736;8.734;2022-11-13T08:01:01;98642.41;;;2.91;100.00
11448;BME280;43755;49.736;8.734;2022-11-13T08:03:04;98644.13;;;3.02;100.00
11448;BME280;43755;49.736;8.734;2022-11-13T08:05:06;98636.28;;;3.08;100.00
11448;BME280;43755;49.736;8.734;2022-11-13T08:07:11;98644.97;;;3.16;100.00
11448;BME280;43755;49.736;8.734;2022-11-13T08:09:12;98635.38;;;3.23;100.00
11448;BME280;43755;49.736;8.734;2022-11-13T08:11:14;98635.31;;;3.35;100.00
11448;BME280;43755;49.736;8.734;2022-11-13T08:13:15;98637.91;;;3.41;100.00
11448;BME280;43755;49.736;8.734;2022-11-13T08:15:17;98632.66;;;3.46;100.00
11448;BME280;43755;49.736;8.734;2022-11-13T08:17:18;98632.63;;;3.53;100.00
11448;BME280;43755;49.736;8.734;2022-11-13T08:19:19;98626.50;;;3.59;100.00
11448;BME280;43755;49.736;8.734;2022-11-13T08:21:21;98626.47;;;3.65;100.00
11448;BME280;43755;49.736;8.734;2022-11-13T08:23:24;98628.16;;;3.72;100.00
11448;BME280;43755;49.736;8.734;2022-11-13T08:25:26;98620.25;;;3.81;100.00
11448;BME280;43755;49.736;8.734;2022-11-13T08:27:27;98635.84;;;3.95;100.00
11448;BME280;43755;49.736;8.734;2022-11-13T08:29:29;98628.78;;;4.07;100.00
11448;BME280;43755;49.736;8.734;2022-11-13T08:31:30;98633.97;;;4.18;100.00
11448;BME280;43755;49.736;8.734;2022-11-13T08:33:32;98639.97;;;4.32;100.00
11448;BME280;43755;49.736;8.734;2022-11-13T08:35:34;98630.31;;;4.39;100.00
11448;BME280;43755;49.736;8.734;2022-11-13T08:37:35;98639.00;;;4.44;100.00
11448;BME280;43755;49.736;8.734;2022-11-13T08:39:38;98640.69;;;4.52;100.00
11448;BME280;43755;49.736;8.734;2022-11-13T08:41:39;98637.09;;;4.61;100.00
11448;BME280;43755;49.736;8.734;2022-11-13T08:43:40;98637.91;;;4.69;100.00
11448;BME280;43755;49.736;8.734;2022-11-13T08:45:44;98636.97;;;4.73;100.00
11448;BME280;43755;49.736;8.734;2022-11-13T08:47:46;98636.13;;;4.73;100.00
11448;BME280;43755;49.736;8.734;2022-11-13T08:49:47;98632.59;;;4.77;100.00
11448;BME280;43755;49.736;8.734;2022-11-13T08:51:48;98639.47;;;4.87;100.00
11448;BME280;43755;49.736;8.734;2022-11-13T08:53:50;98628.06;;;4.92;100.00
11448;BME280;43755;49.736;8.734;2022-11-13T08:55:52;98629.69;;;5.01;100.00
11448;BME280;43755;49.736;8.734;2022-11-13T08:57:57;98630.63;;;5.00;100.00
11448;BME280;43755;49.736;8.734;2022-11-13T08:59:58;98623.50;;;5.08;100.00
11448;BME280;43755;49.736;8.734;2022-11-13T09:02:00;98631.38;;;5.08;100.00
11448;BME280;43755;49.736;8.734;2022-11-13T09:04:02;98625.13;;;5.20;100.00
11448;BME280;43755;49.736;8.734;2022-11-13T09:06:04;98620.75;;;5.20;100.00
11448;BME280;43755;49.736;8.734;2022-11-13T09:08:06;98610.28;;;5.19;100.00
11448;BME280;43755;49.736;8.734;2022-11-13T09:10:08;98621.56;;;5.25;100.00
11448;BME280;43755;49.736;8.734;2022-11-13T09:12:10;98618.84;;;5.33;100.00
11448;BME280;43755;49.736;8.734;2022-11-13T09:14:12;98612.72;;;5.34;100.00
11448;BME280;43755;49.736;8.734;2022-11-13T09:16:14;98597.78;;;5.39;100.00
11448;BME280;43755;49.736;8.734;2022-11-13T09:18:15;98596.84;;;5.45;100.00
11448;BME280;43755;49.736;8.734;2022-11-13T09:20:16;98591.47;;;5.54;100.00
11448;BME280;43755;49.736;8.734;2022-11-13T09:22:18;98593.03;;;5.67;100.00
11448;BME280;43755;49.736;8.734;2022-11-13T09:24:19;98591.13;;;5.78;100.00
11448;BME280;43755;49.736;8.734;2022-11-13T09:26:21;98587.47;;;5.90;100.00
11448;BME280;43755;49.736;8.734;2022-11-13T09:28:24;98579.41;;;6.03;100.00
11448;BME280;43755;49.736;8.734;2022-11-13T09:30:27;98579.31;;;6.08;100.00
11448;BME280;43755;49.736;8.734;2022-11-13T09:32:28;98582.72;;;6.14;100.00
11448;BME280;43755;49.736;8.734;2022-11-13T09:34:30;98576.44;;;6.25;100.00
11448;BME280;43755;49.736;8.734;2022-11-13T09:36:32;98578.84;;;6.37;100.00
11448;BME280;43755;49.736;8.734;2022-11-13T09:38:34;98577.84;;;6.44;100.00
11448;BME280;43755;49.736;8.734;2022-11-13T09:40:40;98582.94;;;6.54;100.00
11448;BME280;43755;49.736;8.734;2022-11-13T09:42:44;98579.22;;;6.66;100.00
11448;BME280;43755;49.736;8.734;2022-11-13T09:44:49;98584.34;;;6.74;100.00
11448;BME280;43755;49.736;8.734;2022-11-13T09:46:53;98579.59;;;6.94;100.00
11448;BME280;43755;49.736;8.734;2022-11-13T09:48:59;98578.00;;;6.84;100.00
11448;BME280;43755;49.736;8.734;2022-11-13T09:51:10;98571.53;;;7.02;100.00
11448;BME280;43755;49.736;8.734;2022-11-13T09:53:13;98569.69;;;7.07;100.00
11448;BME280;43755;49.736;8.734;2022-11-13T09:55:18;98565.25;;;7.09;100.00
11448;BME280;43755;49.736;8.734;2022-11-13T09:57:27;98552.59;;;7.27;100.00
11448;BME280;43755;49.736;8.734;2022-11-13T09:59:34;98552.47;;;7.33;100.00
11448;BME280;43755;49.736;8.734;2022-11-13T10:01:47;98551.91;;;7.59;100.00
11448;BME280;43755;49.736;8.734;2022-11-13T10:03:55;98547.31;;;7.69;100.00
11448;BME280;43755;49.736;8.734;2022-11-13T10:06:04;98549.78;;;7.75;100.00
11448;BME280;43755;49.736;8.734;2022-11-13T10:08:14;98546.75;;;7.93;100.00
11448;BME280;43755;49.736;8.734;2022-11-13T10:10:43;98546.34;;;8.10;100.00
11448;BME280;43755;49.736;8.734;2022-11-13T10:12:50;98543.53;;;8.17;100.00
11448;BME280;43755;49.736;8.734;2022-11-13T10:14:54;98537.38;;;8.17;100.00
11448;BME280;43755;49.736;8.734;2022-11-13T10:17:02;98530.19;;;8.23;100.00
11448;BME280;43755;49.736;8.734;2022-11-13T10:19:08;98525.25;;;8.45;100.00
11448;BME280;43755;49.736;8.734;2022-11-13T10:21:19;98514.91;;;8.72;100.00
11448;BME280;43755;49.736;8.734;2022-11-13T10:23:27;98508.59;;;8.77;100.00
11448;BME280;43755;49.736;8.734;2022-11-13T10:25:36;98498.66;;;8.85;100.00
11448;BME280;43755;49.736;8.734;2022-11-13T10:27:38;98486.16;;;8.92;100.00
11448;BME280;43755;49.736;8.734;2022-11-13T10:29:40;98478.28;;;8.90;100.00
11448;BME280;43755;49.736;8.734;2022-11-13T10:31:44;98478.66;;;9.08;100.00
11448;BME280;43755;49.736;8.734;2022-11-13T10:33:48;98478.41;;;9.17;100.00
11448;BME280;43755;49.736;8.734;2022-11-13T10:35:58;98471.00;;;9.29;100.00
11448;BME280;43755;49.736;8.734;2022-11-13T10:38:05;98481.59;;;9.28;100.00
11448;BME280;43755;49.736;8.734;2022-11-13T10:40:07;98466.78;;;9.24;100.00
11448;BME280;43755;49.736;8.734;2022-11-13T10:42:20;98459.38;;;9.35;100.00
11448;BME280;43755;49.736;8.734;2022-11-13T10:44:28;98456.09;;;9.27;100.00
11448;BME280;43755;49.736;8.734;2022-11-13T10:46:30;98453.25;;;9.34;100.00
11448;BME280;43755;49.736;8.734;2022-11-13T10:48:33;98449.31;;;9.48;100.00
11448;BME280;43755;49.736;8.734;2022-11-13T10:50:38;98439.63;;;9.48;100.00